TimePST,TemperatureF,Dew PointF,Humidity,Sea Level PressureIn,VisibilityMPH,Wind Direction,Wind SpeedMPH,Gust SpeedMPH,PrecipitationIn,Events,Conditions,WindDirDegrees,DateUTC
12:53 AM,14.0,12.0,92,30.35,10.0,South,8.1,-,N/A,,Clear,170,2013-02-14 08:53:00
1:53 AM,15.1,12.0,88,30.35,10.0,SSE,8.1,-,N/A,,Mostly Cloudy,160,2013-02-14 09:53:00
2:53 AM,12.9,10.0,88,30.35,10.0,South,8.1,-,N/A,,Clear,180,2013-02-14 10:53:00
3:53 AM,14.0,10.4,86,30.28,10.0,South,8.1,-,N/A,,Clear,180,2013-02-14 11:53:00
4:53 AM,12.0,9.0,88,30.40,10.0,South,9.2,-,N/A,,Clear,170,2013-02-14 12:53:00
5:53 AM,12.0,9.0,88,30.43,10.0,SSE,6.9,-,N/A,,Clear,150,2013-02-14 13:53:00
6:53 AM,12.9,10.0,88,30.45,10.0,South,10.4,-,N/A,,Clear,180,2013-02-14 14:53:00
7:53 AM,19.4,15.8,86,30.34,10.0,South,9.2,-,N/A,,Clear,170,2013-02-14 15:53:00
8:53 AM,26.1,21.0,81,30.46,10.0,Calm,Calm,-,N/A,,Clear,0,2013-02-14 16:53:00
9:53 AM,30.9,21.9,69,30.45,10.0,NNW,3.5,-,N/A,,Clear,330,2013-02-14 17:53:00
10:53 AM,34.0,23.0,64,30.43,10.0,North,8.1,-,N/A,,Clear,350,2013-02-14 18:53:00
11:53 AM,35.1,23.0,61,30.43,10.0,North,12.7,-,N/A,,Clear,10,2013-02-14 19:53:00
12:53 PM,36.0,23.0,59,30.43,10.0,North,11.5,-,N/A,,Clear,10,2013-02-14 20:53:00
1:53 PM,37.0,23.0,57,30.40,10.0,North,11.5,-,N/A,,Clear,360,2013-02-14 21:53:00
2:53 PM,37.9,23.0,55,30.41,10.0,North,6.9,-,N/A,,Clear,360,2013-02-14 22:53:00
3:53 PM,36.0,21.9,57,30.43,10.0,North,9.2,-,N/A,,Clear,360,2013-02-14 23:53:00
4:53 PM,33.1,23.0,66,30.46,10.0,NNW,9.2,-,N/A,,Clear,330,2013-02-15 00:53:00
5:53 PM,28.0,21.0,75,30.51,10.0,Calm,Calm,-,N/A,,Clear,0,2013-02-15 01:53:00
6:53 PM,26.1,19.9,78,30.51,10.0,NW,4.6,-,N/A,,Clear,320,2013-02-15 02:53:00
7:53 PM,24.1,19.0,81,30.50,10.0,North,3.5,-,N/A,,Clear,360,2013-02-15 03:53:00
8:53 PM,17.1,15.1,92,30.52,10.0,SSE,8.1,-,N/A,,Clear,150,2013-02-15 04:53:00
9:53 PM,14.0,12.0,92,30.51,10.0,SSW,3.5,-,N/A,,Clear,200,2013-02-15 05:53:00
10:53 PM,17.1,14.0,88,30.50,10.0,SSE,8.1,-,N/A,,Clear,160,2013-02-15 06:53:00
11:53 PM,17.1,14.0,88,30.51,10.0,South,9.2,-,N/A,,Clear,170,2013-02-15 07:53:00